Time;durP1;ratioP1;P1;durP2;ratioP2;P2;SDS_P1;SDS_P2;PMS_P1;PMS_P2;Temp;Humidity;BMP_temperature;BMP_pressure;BME280_temperature;BME280_humidity;BME280_pressure;Samples;Min_cycle;Max_cycle;Signal;HPM_P1;HPM_P2
2022/07/18 00:02:27;;;;;;;7.95;4.75;;;;;;;15.30;100.00;102462.44;10451399;28;20090;-65
2022/07/18 00:07:28;;;;;;;6.88;5.00;;;;;;;15.22;100.00;102469.19;10451905;28;20048;-64
2022/07/18 00:12:28;;;;;;;9.02;5.35;;;;;;;15.13;100.00;102465.97;10449619;28;20040;-65
2022/07/18 00:17:29;;;;;;;7.40;5.15;;;;;;;15.05;100.00;102463.59;10451137;28;20064;-64
2022/07/18 00:22:29;;;;;;;10.23;5.50;;;;;;;14.96;100.00;102453.94;10448552;28;20390;-64
2022/07/18 00:27:30;;;;;;;9.73;5.43;;;;;;;14.97;100.00;102444.56;10472742;28;20040;-65
2022/07/18 00:32:31;;;;;;;9.25;5.28;;;;;;;14.93;100.00;102443.38;10491646;28;20059;-64
2022/07/18 00:37:31;;;;;;;9.90;5.38;;;;;;;14.79;100.00;102431.69;10492452;28;20041;-65
2022/07/18 00:42:32;;;;;;;9.77;5.25;;;;;;;14.79;100.00;102433.63;10489041;28;20052;-65
2022/07/18 00:47:32;;;;;;;8.70;5.28;;;;;;;14.72;100.00;102426.28;10481238;28;20482;-64
2022/07/18 00:52:33;;;;;;;9.55;5.70;;;;;;;14.66;100.00;102430.03;10450662;28;20100;-66
2022/07/18 00:57:34;;;;;;;9.80;5.93;;;;;;;14.51;100.00;102410.25;10449099;28;20401;-66
2022/07/18 01:02:35;;;;;;;10.05;5.35;;;;;;;14.56;100.00;102431.75;10466979;28;20036;-67
2022/07/18 01:07:35;;;;;;;10.30;5.90;;;;;;;14.48;100.00;102435.69;10489468;28;20044;-63
2022/07/18 01:12:36;;;;;;;8.40;5.63;;;;;;;14.39;100.00;102434.41;10488907;28;20086;-65
2022/07/18 01:17:37;;;;;;;10.48;6.07;;;;;;;14.27;100.00;102429.69;10474280;28;20047;-64
2022/07/18 01:22:38;;;;;;;9.48;5.88;;;;;;;14.28;100.00;102436.94;10460851;28;20119;-65
2022/07/18 01:27:39;;;;;;;10.25;5.97;;;;;;;14.22;100.00;102426.81;10490331;28;20117;-65
2022/07/18 01:32:40;;;;;;;8.98;6.20;;;;;;;14.17;100.00;102412.81;10489891;28;20060;-64
2022/07/18 01:37:41;;;;;;;11.70;6.57;;;;;;;14.14;100.00;102413.31;10481057;28;20047;-64
2022/07/18 01:42:41;;;;;;;9.93;6.22;;;;;;;14.13;100.00;102415.22;10446203;28;20543;-64
2022/07/18 01:47:42;;;;;;;11.95;6.22;;;;;;;13.99;100.00;102402.69;10460079;28;20504;-65
2022/07/18 01:52:42;;;;;;;8.75;6.10;;;;;;;14.07;100.00;102420.88;10488981;28;20033;-64
2022/07/18 01:57:43;;;;;;;11.13;6.93;;;;;;;14.07;100.00;102412.59;10488518;28;20056;-64
2022/07/18 02:02:43;;;;;;;11.07;5.97;;;;;;;14.03;100.00;102405.84;10488996;28;20597;-65
2022/07/18 02:07:44;;;;;;;10.15;6.38;;;;;;;14.02;100.00;102410.53;10489243;28;20067;-64
2022/07/18 02:12:44;;;;;;;10.85;6.88;;;;;;;13.75;100.00;102359.50;10448903;28;20213;-63
2022/07/18 02:17:45;;;;;;;10.95;7.10;;;;;;;13.99;100.00;102390.78;10447876;28;20175;-64
2022/07/18 02:22:45;;;;;;;12.65;6.32;;;;;;;13.97;100.00;102412.34;10470267;28;20039;-65
2022/07/18 02:27:46;;;;;;;10.15;6.57;;;;;;;13.90;100.00;102388.38;10487731;28;20040;-66
2022/07/18 02:32:47;;;;;;;9.80;6.72;;;;;;;13.87;100.00;102394.41;10487874;28;20037;-66
2022/07/18 02:37:47;;;;;;;13.15;7.72;;;;;;;13.83;100.00;102384.91;10449415;28;20037;-66
2022/07/18 02:42:48;;;;;;;10.32;6.75;;;;;;;13.78;100.00;102406.91;10446430;28;20063;-65
2022/07/18 02:47:48;;;;;;;10.68;6.53;;;;;;;13.73;100.00;102412.31;10456405;28;20067;-65
2022/07/18 02:52:50;;;;;;;10.40;7.13;;;;;;;13.67;100.00;102403.03;10488587;28;20039;-62
2022/07/18 02:57:51;;;;;;;12.30;7.22;;;;;;;13.66;100.00;102386.66;10477821;28;20044;-66
2022/07/18 03:02:51;;;;;;;12.50;7.65;;;;;;;13.71;100.00;102389.56;10469409;28;20562;-66
2022/07/18 03:07:52;;;;;;;12.63;8.00;;;;;;;13.69;100.00;102395.34;10487453;28;20032;-65
2022/07/18 03:12:52;;;;;;;11.45;7.68;;;;;;;13.61;100.00;102403.16;10448161;28;20048;-65
2022/07/18 03:17:52;;;;;;;14.15;7.30;;;;;;;13.60;100.00;102395.91;10446665;28;20073;-66
2022/07/18 03:22:53;;;;;;;15.48;7.88;;;;;;;13.58;100.00;102387.88;10480268;28;20045;-64
2022/07/18 03:27:53;;;;;;;11.60;7.70;;;;;;;13.59;100.00;102385.94;10487373;28;20032;-64
2022/07/18 03:32:54;;;;;;;10.05;6.90;;;;;;;13.54;100.00;102375.59;10485014;28;20043;-62
2022/07/18 03:37:54;;;;;;;14.00;7.65;;;;;;;13.58;100.00;102353.81;10485646;28;22181;-64
2022/07/18 03:42:55;;;;;;;11.98;8.00;;;;;;;13.61;100.00;102333.97;10456917;28;20493;-62
2022/07/18 03:47:55;;;;;;;13.55;7.95;;;;;;;13.70;100.00;102333.38;10445675;28;21032;-64
2022/07/18 03:52:56;;;;;;;15.38;9.38;;;;;;;13.83;100.00;102339.72;10461393;28;20422;-64
2022/07/18 03:57:56;;;;;;;12.25;8.20;;;;;;;13.90;100.00;102340.47;10489513;28;20036;-65
2022/07/18 04:02:57;;;;;;;11.65;8.00;;;;;;;13.87;100.00;102329.88;10493762;28;20036;-64
2022/07/18 04:07:57;;;;;;;13.23;9.27;;;;;;;13.81;100.00;102342.75;10493281;28;20123;-63
2022/07/18 04:12:58;;;;;;;14.02;8.13;;;;;;;13.89;100.00;102356.25;10487603;28;20067;-64
2022/07/18 04:17:58;;;;;;;14.88;8.60;;;;;;;13.92;100.00;102366.81;10452141;28;20053;-64
2022/07/18 04:23:00;;;;;;;10.95;6.88;;;;;;;13.96;100.00;102349.75;10452018;28;20044;-65
2022/07/18 04:28:00;;;;;;;10.52;7.35;;;;;;;14.01;100.00;102336.00;10491515;28;20043;-64
2022/07/18 04:33:03;;;;;;;11.80;7.55;;;;;;;14.09;100.00;102319.03;10492184;28;20033;-65
2022/07/18 04:38:03;;;;;;;12.40;7.68;;;;;;;14.22;100.00;102316.00;10489948;28;20041;-65
2022/07/18 04:43:04;;;;;;;12.18;7.53;;;;;;;14.46;100.00;102316.78;10489817;28;20053;-64
2022/07/18 04:48:05;;;;;;;11.68;7.32;;;;;;;14.72;100.00;102326.50;10493170;28;20516;-64
2022/07/18 04:53:06;;;;;;;11.75;7.05;;;;;;;14.97;100.00;102311.44;10464273;28;20045;-65
2022/07/18 04:58:06;;;;;;;12.15;6.57;;;;;;;15.24;100.00;102310.81;10447634;28;20045;-64
2022/07/18 05:03:07;;;;;;;13.93;7.07;;;;;;;15.48;100.00;102309.56;10473491;28;20037;-64
2022/07/18 05:08:07;;;;;;;15.05;8.07;;;;;;;15.67;100.00;102296.25;10486940;28;20036;-64
2022/07/18 05:13:08;;;;;;;12.35;6.80;;;;;;;15.82;100.00;102309.56;10487233;28;20052;-64
2022/07/18 05:18:08;;;;;;;10.48;6.45;;;;;;;15.97;100.00;102300.59;10468458;28;20116;-62
2022/07/18 05:23:09;;;;;;;11.05;6.78;;;;;;;16.06;100.00;102304.66;10470619;28;20119;-65
2022/07/18 05:28:09;;;;;;;10.93;6.35;;;;;;;16.19;100.00;102306.19;10489614;28;20129;-65
2022/07/18 05:33:10;;;;;;;10.68;7.00;;;;;;;16.34;100.00;102306.38;10489102;28;20033;-65
2022/07/18 05:38:12;;;;;;;9.52;6.55;;;;;;;16.48;100.00;102304.06;10489418;28;20051;-65
2022/07/18 05:43:12;;;;;;;7.65;5.38;;;;;;;16.65;100.00;102312.31;10489018;28;20063;-64
2022/07/18 05:48:13;;;;;;;9.00;5.53;;;;;;;16.79;100.00;102300.81;10471013;28;20063;-65
2022/07/18 05:53:13;;;;;;;12.57;6.13;;;;;;;16.99;100.00;102292.72;10485608;28;20040;-63
2022/07/18 05:58:13;;;;;;;11.20;5.63;;;;;;;17.14;100.00;102278.09;10488747;28;20050;-65
2022/07/18 06:03:14;;;;;;;8.32;4.78;;;;;;;16.98;100.00;102249.28;10488675;28;20040;-65
2022/07/18 06:08:14;;;;;;;12.10;5.40;;;;;;;17.28;100.00;102267.34;10486284;28;20053;-62
2022/07/18 06:13:15;;;;;;;15.57;5.70;;;;;;;17.43;100.00;102242.44;10487631;28;20078;-64
2022/07/18 06:18:15;;;;;;;8.98;5.15;;;;;;;17.62;100.00;102233.63;10484451;28;20048;-64
2022/07/18 06:23:16;;;;;;;8.13;4.60;;;;;;;17.80;100.00;102240.69;10448413;28;20056;-65
2022/07/18 06:28:16;;;;;;;8.90;4.30;;;;;;;17.91;100.00;102232.16;10484527;28;21127;-64
2022/07/18 06:33:17;;;;;;;6.13;4.10;;;;;;;18.03;100.00;102233.91;10476304;28;20071;-65
2022/07/18 06:38:17;;;;;;;9.07;3.80;;;;;;;18.13;100.00;102239.53;10446743;28;20072;-62
2022/07/18 06:43:21;;;;;;;6.18;3.70;;;;;;;18.09;100.00;102199.38;10449548;28;20040;-65
2022/07/18 06:48:21;;;;;;;5.30;3.17;;;;;;;18.65;100.00;102249.72;10448618;28;20055;-65
2022/07/18 06:53:22;;;;;;;8.02;2.95;;;;;;;19.15;100.00;102244.50;10453000;28;20047;-65
2022/07/18 06:58:22;;;;;;;6.32;3.10;;;;;;;19.48;100.00;102243.06;10446650;28;20040;-65
2022/07/18 07:03:23;;;;;;;6.45;2.80;;;;;;;19.83;100.00;102244.16;10447844;28;20151;-66
2022/07/18 07:08:23;;;;;;;5.35;2.03;;;;;;;20.44;100.00;102245.84;10447746;28;20036;-65
2022/07/18 07:13:23;;;;;;;7.07;2.20;;;;;;;21.15;100.00;102244.56;10449014;28;20090;-65
2022/07/18 07:18:24;;;;;;;5.20;2.08;;;;;;;21.50;93.64;102225.78;10447302;28;20048;-65
2022/07/18 07:23:24;;;;;;;5.28;1.83;;;;;;;21.16;84.21;102220.19;10456425;28;20044;-65
2022/07/18 07:28:25;;;;;;;4.30;1.95;;;;;;;21.29;85.46;102232.69;10486790;28;20028;-65
2022/07/18 07:33:25;;;;;;;6.43;2.20;;;;;;;21.44;83.86;102226.97;10491811;28;20044;-65
2022/07/18 07:38:28;;;;;;;4.53;1.55;;;;;;;21.85;83.92;102222.88;10487057;28;20028;-66
2022/07/18 07:43:29;;;;;;;4.78;1.55;;;;;;;21.94;82.52;102213.53;10497317;28;20101;-66
2022/07/18 07:48:29;;;;;;;4.65;1.83;;;;;;;22.18;84.42;102229.50;10497068;28;20059;-65
2022/07/18 07:53:30;;;;;;;5.47;2.78;;;;;;;22.46;81.78;102219.31;10494834;28;20047;-66
2022/07/18 07:58:31;;;;;;;5.07;1.85;;;;;;;23.01;79.62;102206.66;10437862;28;20049;-64
2022/07/18 08:03:31;;;;;;;2.33;1.42;;;;;;;23.22;76.17;102198.78;10452200;28;20041;-64
2022/07/18 08:08:32;;;;;;;3.47;1.50;;;;;;;22.95;75.37;102186.28;10452988;28;20029;-64
2022/07/18 08:13:32;;;;;;;5.30;1.23;;;;;;;23.41;71.81;102174.25;10466793;28;20079;-64
2022/07/18 08:18:33;;;;;;;3.65;1.67;;;;;;;23.66;69.43;102160.84;10478595;28;20036;-64
2022/07/18 08:23:33;;;;;;;4.70;1.73;;;;;;;24.26;70.52;102163.50;10491941;28;20047;-64
2022/07/18 08:28:34;;;;;;;7.45;1.70;;;;;;;24.81;71.27;102172.94;10480038;28;20037;-65
2022/07/18 08:33:34;;;;;;;7.32;1.50;;;;;;;24.52;65.81;102160.94;10451849;28;20413;-64
2022/07/18 08:38:35;;;;;;;4.13;1.80;;;;;;;24.09;66.70;102163.34;10464164;28;20058;-66
2022/07/18 08:43:35;;;;;;;5.28;1.80;;;;;;;24.22;68.67;102182.16;10465332;28;20045;-63
2022/07/18 08:48:36;;;;;;;4.93;1.40;;;;;;;24.61;67.12;102180.72;10469167;28;20048;-65
2022/07/18 08:53:37;;;;;;;2.67;1.25;;;;;;;25.17;69.63;102182.09;10466547;28;20069;-64
2022/07/18 08:58:38;;;;;;;4.32;1.48;;;;;;;25.62;64.60;102146.56;10492225;28;20036;-65
2022/07/18 09:03:38;;;;;;;5.60;1.30;;;;;;;26.14;65.74;102158.00;10490575;28;20044;-61
2022/07/18 09:08:40;;;;;;;6.60;1.83;;;;;;;26.44;63.11;102138.41;10489396;28;20036;-64
2022/07/18 09:13:42;;;;;;;8.02;1.10;;;;;;;26.52;66.56;102157.34;10478021;28;20060;-64
2022/07/18 09:18:46;;;;;;;2.58;1.20;;;;;;;26.29;64.07;102136.91;10470112;28;20032;-65
2022/07/18 09:23:48;;;;;;;5.93;1.60;;;;;;;26.28;64.70;102158.66;10456890;28;20052;-66
2022/07/18 09:28:51;;;;;;;6.35;1.23;;;;;;;26.34;62.62;102151.69;10462743;28;20048;-65
2022/07/18 09:33:52;;;;;;;5.38;0.90;;;;;;;26.51;62.54;102150.03;10448516;28;20114;-65
2022/07/18 09:38:53;;;;;;;3.65;1.15;;;;;;;26.52;60.47;102129.94;10457787;28;20040;-65
2022/07/18 09:43:53;;;;;;;4.72;1.40;;;;;;;26.41;60.27;102127.78;10491772;28;20075;-66
2022/07/18 09:49:10;;;;;;;5.30;1.20;;;;;;;26.47;59.81;102120.81;10486177;28;20060;-66
2022/07/18 09:54:10;;;;;;;2.78;1.83;;;;;;;26.82;58.40;102117.97;10469555;28;20044;-66
2022/07/18 09:59:10;;;;;;;4.30;1.45;;;;;;;26.64;55.75;102112.34;10451139;28;20099;-66
2022/07/18 10:04:11;;;;;;;3.47;1.00;;;;;;;26.96;60.08;102144.03;10429470;28;20045;-66
2022/07/18 10:09:11;;;;;;;3.67;1.52;;;;;;;26.83;57.98;102128.09;10447133;28;20202;-66
2022/07/18 10:14:12;;;;;;;8.00;1.48;;;;;;;27.29;59.85;102140.66;10483308;28;20412;-66
2022/07/18 10:19:13;;;;;;;3.58;1.20;;;;;;;27.65;56.49;102130.84;10452166;28;20029;-66
2022/07/18 10:24:13;;;;;;;5.25;1.33;;;;;;;27.97;55.71;102115.19;10480482;28;20508;-66
2022/07/18 10:29:15;;;;;;;3.25;1.13;;;;;;;27.90;55.63;102123.38;10470648;28;20039;-66
2022/07/18 10:34:15;;;;;;;5.68;1.33;;;;;;;28.08;54.86;102124.09;10488412;28;20040;-66
2022/07/18 10:39:20;;;;;;;5.25;1.45;;;;;;;28.47;51.82;102108.63;10489708;28;20036;-67
2022/07/18 10:44:20;;;;;;;4.05;1.02;;;;;;;28.46;51.21;102103.28;10471648;28;20064;-67
2022/07/18 10:49:21;;;;;;;6.23;1.87;;;;;;;28.92;50.95;102098.50;10462076;28;20040;-65
2022/07/18 10:54:21;;;;;;;4.43;1.45;;;;;;;29.31;49.90;102094.25;10473036;28;20276;-66
2022/07/18 10:59:24;;;;;;;7.20;1.58;;;;;;;29.43;49.04;102096.25;10463057;28;20451;-66
2022/07/18 11:04:30;;;;;;;6.10;1.90;;;;;;;29.65;47.99;102085.63;10486944;28;20396;-65
2022/07/18 11:09:47;;;;;;;6.18;1.38;;;;;;;29.65;49.82;102094.13;10497610;28;20037;-65
2022/07/18 11:15:04;;;;;;;6.68;1.70;;;;;;;29.72;45.56;102068.84;10483313;28;20029;-66
2022/07/18 11:20:24;;;;;;;3.83;2.63;;;;;;;29.88;43.92;102061.22;10488831;28;20037;-64
2022/07/18 11:25:28;;;;;;;6.32;2.30;;;;;;;29.91;45.77;102063.38;10453193;28;20087;-65
2022/07/18 11:30:28;;;;;;;4.85;2.70;;;;;;;30.04;41.90;102034.94;10456271;28;20067;-65
2022/07/18 11:35:29;;;;;;;6.03;2.70;;;;;;;30.10;42.13;102036.34;10458602;28;20071;-65
2022/07/18 11:40:30;;;;;;;4.97;2.70;;;;;;;30.42;42.19;102039.28;10495646;28;20044;-65
2022/07/18 11:45:30;;;;;;;5.60;2.38;;;;;;;30.57;39.87;102024.28;10493472;28;20037;-65
2022/07/18 11:50:37;;;;;;;4.78;2.83;;;;;;;30.87;39.35;102016.19;10481989;28;20032;-65
2022/07/18 11:55:38;;;;;;;6.80;2.75;;;;;;;31.77;38.05;102012.66;10485685;28;20052;-64
2022/07/18 12:00:38;;;;;;;4.70;2.70;;;;;;;32.42;38.34;102019.72;10493473;28;20040;-64
2022/07/18 12:05:41;;;;;;;3.92;2.60;;;;;;;32.48;36.10;101989.72;10492101;28;20036;-65
2022/07/18 12:10:41;;;;;;;6.68;3.10;;;;;;;32.92;35.94;101992.13;10494210;28;20059;-65
2022/07/18 12:15:42;;;;;;;5.30;2.90;;;;;;;32.90;35.80;101988.84;10485232;28;20508;-65
2022/07/18 12:20:42;;;;;;;4.82;3.17;;;;;;;32.94;36.12;101989.72;10491846;28;20501;-66
2022/07/18 12:25:43;;;;;;;4.07;3.30;;;;;;;33.68;35.12;101972.16;10449193;28;20079;-65
2022/07/18 12:30:44;;;;;;;4.40;2.97;;;;;;;34.73;32.19;101946.38;10417568;28;20045;-66
2022/07/18 12:35:44;;;;;;;8.00;3.03;;;;;;;35.61;31.90;101960.88;10449695;28;20063;-67
2022/07/18 12:40:52;;;;;;;6.53;3.47;;;;;;;35.37;30.82;101950.94;10452135;28;20044;-66
2022/07/18 12:45:54;;;;;;;4.10;2.92;;;;;;;34.61;31.15;101946.66;10440679;28;20047;-67
2022/07/18 12:50:57;;;;;;;6.53;3.28;;;;;;;34.82;31.72;101954.63;10450130;28;20040;-66
2022/07/18 12:55:57;;;;;;;6.05;3.17;;;;;;;35.10;31.52;101956.03;10440681;28;20076;-65
2022/07/18 13:00:58;;;;;;;5.18;2.88;;;;;;;35.23;30.29;101933.69;10450861;28;20037;-65
2022/07/18 13:05:58;;;;;;;5.03;3.25;;;;;;;35.25;30.29;101948.44;10455593;28;20047;-66
2022/07/18 13:10:59;;;;;;;5.68;3.17;;;;;;;35.56;30.52;101938.38;10490290;28;20028;-65
2022/07/18 13:15:59;;;;;;;5.47;2.70;;;;;;;35.75;30.82;101942.97;10489839;28;20048;-65
2022/07/18 13:21:00;;;;;;;3.72;2.88;;;;;;;35.21;30.16;101941.84;10470816;28;20029;-66
2022/07/18 13:26:00;;;;;;;2.75;2.47;;;;;;;35.30;30.23;101928.00;10455876;28;20071;-64
2022/07/18 13:31:01;;;;;;;6.30;2.95;;;;;;;35.51;31.04;101942.41;10468860;28;20276;-65
2022/07/18 13:36:02;;;;;;;4.57;3.17;;;;;;;36.06;29.89;101929.97;10489850;28;20423;-64
2022/07/18 13:41:02;;;;;;;5.05;3.05;;;;;;;36.04;30.65;101934.47;10490818;28;20435;-64
2022/07/18 13:46:03;;;;;;;7.22;3.80;;;;;;;35.92;30.95;101924.19;10488337;28;20035;-66
2022/07/18 13:51:03;;;;;;;4.68;2.90;;;;;;;36.14;30.77;101913.63;10488907;28;20040;-67
2022/07/18 13:56:04;;;;;;;6.95;3.22;;;;;;;36.76;29.04;101904.66;10490417;28;20094;-64
2022/07/18 14:01:05;;;;;;;4.63;3.15;;;;;;;35.58;30.12;101910.13;10486503;28;20051;-65
2022/07/18 14:06:05;;;;;;;3.30;2.40;;;;;;;34.64;31.44;101908.69;10429792;28;20041;-67
2022/07/18 14:11:06;;;;;;;6.03;2.47;;;;;;;34.35;36.40;101939.88;10448879;28;20056;-65
2022/07/18 14:16:06;;;;;;;8.98;3.40;;;;;;;34.76;33.61;101928.41;10487103;28;20045;-64
2022/07/18 14:21:07;;;;;;;4.60;2.70;;;;;;;33.84;34.68;101933.97;10487938;28;20052;-66
2022/07/18 14:26:07;;;;;;;4.05;2.15;;;;;;;33.74;32.33;101912.66;10460516;28;20075;-65
2022/07/18 14:31:08;;;;;;;4.95;2.53;;;;;;;33.26;32.45;101898.97;10447703;28;20044;-65
2022/07/18 14:36:08;;;;;;;6.45;3.33;;;;;;;32.87;33.21;101909.75;10447363;28;20433;-65
2022/07/18 14:41:09;;;;;;;6.40;3.03;;;;;;;32.31;35.05;101909.22;10446650;28;20090;-66
2022/07/18 14:46:09;;;;;;;4.75;2.70;;;;;;;32.91;33.18;101902.91;10464482;28;20545;-64
2022/07/18 14:51:10;;;;;;;5.40;2.85;;;;;;;33.44;34.22;101915.50;10456320;28;20049;-65
2022/07/18 14:56:10;;;;;;;5.03;3.03;;;;;;;33.56;34.06;101916.06;10446214;28;20045;-68
2022/07/18 15:01:11;;;;;;;4.95;2.30;;;;;;;33.31;34.40;101874.97;10423467;28;20067;-65
2022/07/18 15:06:12;;;;;;;3.05;2.70;;;;;;;34.50;31.39;101897.13;10422383;28;20037;-65
2022/07/18 15:11:12;;;;;;;4.40;2.22;;;;;;;35.86;31.39;101903.69;10444016;28;20041;-65
2022/07/18 15:16:13;;;;;;;5.93;2.90;;;;;;;35.90;30.11;101873.00;10446472;28;20049;-63
2022/07/18 15:21:13;;;;;;;7.28;2.78;;;;;;;34.90;31.68;101896.25;10472376;28;20064;-63
2022/07/18 15:26:14;;;;;;;5.10;2.70;;;;;;;34.72;33.20;101889.56;10485557;28;20100;-62
2022/07/18 15:31:14;;;;;;;7.22;2.55;;;;;;;34.06;32.14;101883.63;10461180;28;20052;-64
2022/07/18 15:36:15;;;;;;;6.22;2.92;;;;;;;33.31;34.42;101889.25;10446873;28;20521;-63
2022/07/18 15:41:19;;;;;;;4.80;2.90;;;;;;;32.92;35.79;101893.13;10446635;28;20044;-63
2022/07/18 15:46:20;;;;;;;4.70;2.70;;;;;;;33.48;32.95;101876.41;10447409;28;20036;-65
2022/07/18 15:51:20;;;;;;;4.18;2.28;;;;;;;34.27;31.62;101863.84;10445702;28;20045;-66
2022/07/18 15:56:21;;;;;;;4.90;2.40;;;;;;;35.48;31.39;101863.03;10452931;28;20041;-65
2022/07/18 16:01:21;;;;;;;5.22;2.90;;;;;;;37.63;29.94;101852.78;10454415;28;20044;-64
2022/07/18 16:06:22;;;;;;;5.45;2.97;;;;;;;37.89;26.44;101822.63;10480202;28;20040;-64
2022/07/18 16:11:22;;;;;;;3.58;2.85;;;;;;;37.91;27.89;101829.59;10474607;28;20037;-65
2022/07/18 16:16:23;;;;;;;6.68;3.10;;;;;;;37.78;28.10;101819.81;10480052;28;20044;-65
2022/07/18 16:21:23;;;;;;;4.40;2.60;;;;;;;37.61;29.51;101838.81;10450359;28;20036;-65
2022/07/18 16:26:24;;;;;;;4.28;2.75;;;;;;;37.48;27.85;101806.84;10468572;28;20068;-64
2022/07/18 16:31:24;;;;;;;3.75;3.03;;;;;;;36.80;28.80;101814.88;10452838;28;20045;-63
2022/07/18 16:36:25;;;;;;;4.65;2.60;;;;;;;35.27;31.93;101831.47;10480263;28;22223;-65
2022/07/18 16:41:25;;;;;;;4.32;3.15;;;;;;;34.27;30.46;101811.56;10464991;28;20037;-65
2022/07/18 16:46:26;;;;;;;5.50;2.70;;;;;;;33.44;31.37;101807.84;10449838;28;20071;-65
2022/07/18 16:51:28;;;;;;;5.05;2.75;;;;;;;32.57;32.80;101799.31;10452683;28;20041;-65
2022/07/18 16:56:29;;;;;;;9.02;2.92;;;;;;;32.03;35.28;101820.38;10451054;28;20124;-65
2022/07/18 17:01:29;;;;;;;6.82;2.80;;;;;;;31.56;34.47;101817.44;10451367;28;20053;-66
2022/07/18 17:06:30;;;;;;;5.47;3.67;;;;;;;31.48;36.92;101823.34;10459204;28;20033;-66
2022/07/18 17:11:31;;;;;;;3.60;2.63;;;;;;;31.21;35.24;101813.84;10454703;28;20563;-66
2022/07/18 17:16:31;;;;;;;5.00;2.67;;;;;;;30.66;36.47;101817.47;10448703;28;20108;-66
2022/07/18 17:21:32;;;;;;;4.53;2.72;;;;;;;30.23;38.33;101829.78;10450353;28;20499;-65
2022/07/18 17:26:32;;;;;;;4.45;2.67;;;;;;;29.75;39.67;101835.41;10443246;28;20308;-66
2022/07/18 17:31:33;;;;;;;5.28;2.42;;;;;;;29.39;40.13;101840.00;10450303;28;20029;-65
2022/07/18 17:36:35;;;;;;;4.82;2.35;;;;;;;28.81;41.95;101805.41;10449662;28;20063;-65
2022/07/18 17:41:36;;;;;;;8.88;2.70;;;;;;;28.75;45.97;101862.34;10447338;28;20056;-65
2022/07/18 17:46:36;;;;;;;7.10;3.55;;;;;;;28.46;46.73;101868.19;10449074;28;20132;-66
2022/07/18 17:51:37;;;;;;;5.32;3.42;;;;;;;28.08;50.84;101884.31;10449850;28;20062;-63
2022/07/18 17:56:37;;;;;;;4.50;3.00;;;;;;;27.62;51.41;101871.25;10450514;28;20044;-65
2022/07/18 18:01:38;;;;;;;8.52;3.47;;;;;;;27.34;51.53;101878.31;10471075;28;20043;-65
2022/07/18 18:06:38;;;;;;;6.30;3.47;;;;;;;27.04;53.33;101880.34;10487209;28;20036;-66
2022/07/18 18:11:39;;;;;;;8.18;3.33;;;;;;;26.45;54.82;101829.47;10487487;28;20733;-65
2022/07/18 18:16:42;;;;;;;5.57;3.42;;;;;;;26.63;56.61;101892.38;10487152;28;20044;-65
2022/07/18 18:21:43;;;;;;;4.95;3.20;;;;;;;26.34;56.39;101880.69;10471737;28;20135;-65
2022/07/18 18:26:43;;;;;;;4.97;2.78;;;;;;;26.21;57.13;101886.53;10450718;28;20067;-65
2022/07/18 18:31:44;;;;;;;6.30;3.60;;;;;;;26.07;56.69;101878.28;10461764;28;20737;-64
2022/07/18 18:36:58;;;;;;;8.32;3.38;;;;;;;25.92;60.50;101891.75;10479515;28;20028;-66
2022/07/18 18:41:59;;;;;;;7.93;4.05;;;;;;;25.61;61.19;101882.63;10467471;28;20036;-65
2022/07/18 18:46:59;;;;;;;7.57;3.60;;;;;;;25.34;61.52;101884.59;10453043;28;20029;-64
2022/07/18 18:52:00;;;;;;;5.30;2.60;;;;;;;25.13;65.47;101887.22;10449106;28;20032;-65
2022/07/18 18:57:00;;;;;;;6.43;3.53;;;;;;;24.96;64.56;101885.19;10451314;28;20028;-65
2022/07/18 19:02:01;;;;;;;8.80;3.25;;;;;;;24.76;66.34;101884.66;10473212;28;20033;-65
2022/07/18 19:07:02;;;;;;;6.60;3.50;;;;;;;24.53;69.23;101894.34;10472731;28;20036;-65
2022/07/18 19:12:02;;;;;;;5.82;3.78;;;;;;;24.26;71.77;101904.59;10446013;28;20084;-64
2022/07/18 19:17:03;;;;;;;7.05;3.85;;;;;;;23.99;74.02;101893.53;10428065;28;20044;-65
2022/07/18 19:22:03;;;;;;;5.40;3.20;;;;;;;23.68;76.92;101897.09;10446242;28;20041;-65
2022/07/18 19:27:04;;;;;;;10.43;3.22;;;;;;;23.39;76.59;101891.88;10445870;28;20049;-66
2022/07/18 19:32:05;;;;;;;7.65;3.22;;;;;;;23.12;78.34;101888.81;10454490;28;20044;-64
2022/07/18 19:37:05;;;;;;;6.72;3.22;;;;;;;22.91;80.22;101898.81;10468449;28;20105;-63
2022/07/18 19:42:06;;;;;;;6.80;3.30;;;;;;;22.68;82.49;101901.53;10454174;28;21055;-65
2022/07/18 19:47:06;;;;;;;7.25;3.90;;;;;;;22.50;85.30;101911.69;10454249;28;20029;-65
2022/07/18 19:52:10;;;;;;;11.70;4.15;;;;;;;22.35;90.86;101917.59;10469636;28;20037;-65
2022/07/18 19:57:11;;;;;;;10.27;3.60;;;;;;;21.98;93.50;101887.69;10456122;28;20033;-65
2022/07/18 20:02:11;;;;;;;5.10;3.08;;;;;;;22.03;96.61;101924.84;10450922;28;20029;-65
2022/07/18 20:07:12;;;;;;;6.07;3.33;;;;;;;21.87;100.00;101926.25;10451327;28;20083;-64
2022/07/18 20:12:12;;;;;;;7.05;3.20;;;;;;;21.65;100.00;101924.94;10451397;28;20689;-64
2022/07/18 20:17:13;;;;;;;14.02;8.70;;;;;;;21.42;100.00;101923.88;10451430;28;20041;-64
2022/07/18 20:22:14;;;;;;;12.75;4.93;;;;;;;21.23;100.00;101934.19;10451630;28;20048;-64
2022/07/18 20:27:15;;;;;;;7.18;4.03;;;;;;;21.12;100.00;101923.13;10450302;28;20048;-65
2022/07/18 20:32:15;;;;;;;6.22;3.40;;;;;;;21.03;100.00;101930.53;10448960;28;20075;-64
2022/07/18 20:37:16;;;;;;;5.65;3.30;;;;;;;20.96;100.00;101932.88;10446863;28;20030;-64
2022/07/18 20:42:16;;;;;;;11.38;4.43;;;;;;;20.81;100.00;101922.69;10449935;28;20457;-64
2022/07/18 20:47:17;;;;;;;7.55;3.33;;;;;;;20.65;100.00;101937.97;10451331;28;20124;-64
2022/07/18 20:52:17;;;;;;;5.55;3.65;;;;;;;20.49;100.00;101921.34;10449665;28;20033;-64
2022/07/18 20:57:18;;;;;;;9.98;3.22;;;;;;;20.39;100.00;101927.03;10462772;28;20560;-64
2022/07/18 21:02:18;;;;;;;6.82;3.42;;;;;;;20.25;100.00;101926.88;10449422;28;20033;-64
2022/07/18 21:07:19;;;;;;;5.95;3.53;;;;;;;20.12;100.00;101916.41;10470823;28;20039;-64
2022/07/18 21:12:19;;;;;;;9.27;4.00;;;;;;;20.06;100.00;101923.16;10457636;28;20037;-64
2022/07/18 21:17:20;;;;;;;9.88;3.92;;;;;;;19.89;100.00;101907.66;10449527;28;20044;-64
2022/07/18 21:22:21;;;;;;;9.70;4.05;;;;;;;19.84;100.00;101918.84;10441124;28;20044;-63
2022/07/18 21:27:21;;;;;;;6.28;3.65;;;;;;;19.74;100.00;101910.56;10446254;28;20523;-64
2022/07/18 21:32:22;;;;;;;6.53;4.18;;;;;;;19.62;100.00;101913.72;10447516;28;20033;-64
2022/07/18 21:37:22;;;;;;;13.27;4.82;;;;;;;19.50;100.00;101902.06;10487977;28;20028;-64
2022/07/18 21:42:23;;;;;;;7.85;4.18;;;;;;;19.42;100.00;101908.25;10488384;28;20063;-63
2022/07/18 21:47:24;;;;;;;10.65;5.15;;;;;;;19.30;100.00;101906.63;10488580;28;20032;-63
2022/07/18 21:52:25;;;;;;;8.32;4.63;;;;;;;19.20;100.00;101901.09;10486305;28;20040;-63
2022/07/18 21:57:26;;;;;;;7.72;4.90;;;;;;;19.14;100.00;101897.53;10487861;28;20035;-64
2022/07/18 22:02:26;;;;;;;8.25;4.53;;;;;;;19.05;100.00;101899.25;10461884;28;20044;-63
2022/07/18 22:07:27;;;;;;;8.02;3.83;;;;;;;18.93;100.00;101887.56;10444156;28;20120;-63
2022/07/18 22:12:27;;;;;;;5.50;3.95;;;;;;;18.84;100.00;101892.09;10459132;28;20037;-64
2022/07/18 22:17:28;;;;;;;6.03;4.07;;;;;;;18.74;100.00;101885.38;10448809;28;20045;-64
2022/07/18 22:22:28;;;;;;;8.73;5.30;;;;;;;18.65;100.00;101892.69;10446931;28;20048;-63
2022/07/18 22:27:30;;;;;;;10.60;6.03;;;;;;;18.54;100.00;101882.66;10447260;28;20052;-63
2022/07/18 22:32:30;;;;;;;11.02;5.30;;;;;;;18.49;100.00;101885.50;10461657;28;20037;-64
2022/07/18 22:37:31;;;;;;;12.50;6.10;;;;;;;18.41;100.00;101883.28;10457724;28;20029;-63
2022/07/18 22:42:31;;;;;;;10.50;5.82;;;;;;;18.35;100.00;101879.66;10457814;28;20051;-63
2022/07/18 22:47:32;;;;;;;9.02;5.50;;;;;;;18.28;100.00;101896.69;10460768;28;20033;-63
2022/07/18 22:52:32;;;;;;;9.73;5.80;;;;;;;18.22;100.00;101892.25;10447872;28;20040;-63